Terminal Aerodrome Forecast
Issued by NWS

Home | Current Version | Previous Version | Text Only | Print | Product List | Glossary On
Versions: 1 2 3 4 5 6 7 8 9 10 11 12 13 14 15
000
FTUS44 KLZK 301100
TAFHOT
TAF
KHOT 301120Z 3012/0112 15006KT P6SM BKN080
     FM301800 17008KT P6SM SCT050 SCT250
     FM010000 14003KT P6SM SCT250=

USA.gov is the U.S. government's official web portal to all federal, state and local government web resources and services.